Time;durP1;ratioP1;P1;durP2;ratioP2;P2;SDS_P1;SDS_P2;PMS_P1;PMS_P2;Temp;Humidity;BMP_temperature;BMP_pressure;BME280_temperature;BME280_humidity;BME280_pressure;Samples;Min_cycle;Max_cycle;Signal;HPM_P1;HPM_P2
2022/02/18 00:01:11;;;;;;;28.65;5.75;;;;;;;7.44;100.00;101195.13;5286826;28;20114;-79
2022/02/18 00:03:41;;;;;;;50.05;5.20;;;;;;;7.46;100.00;101179.81;5286623;28;20028;-79
2022/02/18 00:06:12;;;;;;;34.05;4.70;;;;;;;7.51;100.00;101180.22;5287088;28;20016;-79
2022/02/18 00:08:44;;;;;;;33.97;5.15;;;;;;;7.55;100.00;101178.13;5286537;28;20023;-79
2022/02/18 00:11:16;;;;;;;41.00;4.38;;;;;;;7.56;100.00;101176.31;5286631;28;20023;-79
2022/02/18 00:13:46;;;;;;;44.55;7.07;;;;;;;7.55;100.00;101178.13;5286466;28;20493;-79
2022/02/18 00:16:17;;;;;;;40.85;5.20;;;;;;;7.57;100.00;101169.97;5286098;28;20023;-79
2022/02/18 00:18:47;;;;;;;42.13;5.60;;;;;;;7.60;100.00;101167.03;5286696;28;20029;-79
2022/02/18 00:21:17;;;;;;;46.25;5.90;;;;;;;7.63;100.00;101172.97;5286351;28;20030;-79
2022/02/18 00:23:48;;;;;;;38.83;5.60;;;;;;;7.64;100.00;101161.28;5282398;28;20030;-79
2022/02/18 00:26:18;;;;;;;43.60;5.57;;;;;;;7.67;100.00;101157.47;5287186;28;20020;-79
2022/02/18 00:28:50;;;;;;;42.20;5.78;;;;;;;7.71;100.00;101159.72;5270113;28;20023;-79
2022/02/18 00:31:21;;;;;;;39.55;4.68;;;;;;;7.69;100.00;101164.38;5290092;28;20101;-80
2022/02/18 00:33:51;;;;;;;43.05;6.07;;;;;;;7.70;100.00;101146.53;5289238;28;20055;-80
2022/02/18 00:36:22;;;;;;;45.28;5.75;;;;;;;7.72;100.00;101144.53;5288877;28;20031;-80
2022/02/18 00:38:52;;;;;;;47.05;5.90;;;;;;;7.71;100.00;101137.53;5286626;28;20027;-80
2022/02/18 00:41:23;;;;;;;46.28;5.10;;;;;;;7.71;100.00;101138.38;5287447;28;20024;-80
2022/02/18 00:43:53;;;;;;;46.85;7.25;;;;;;;7.73;100.00;101140.88;5272009;28;20103;-80
2022/02/18 00:46:24;;;;;;;49.42;6.35;;;;;;;7.75;100.00;101123.75;5287828;28;20107;-80
2022/02/18 00:48:54;;;;;;;43.05;6.85;;;;;;;7.75;100.00;101128.25;5289562;28;20019;-79
2022/02/18 00:51:25;;;;;;;39.33;4.43;;;;;;;7.75;100.00;101123.75;5286239;28;20019;-79
2022/02/18 00:53:55;;;;;;;39.70;5.65;;;;;;;7.76;100.00;101129.94;5285965;28;20030;-79
2022/02/18 00:56:26;;;;;;;48.70;5.38;;;;;;;7.76;100.00;101125.44;5273348;28;20075;-79
2022/02/18 00:59:00;;;;;;;48.13;6.65;;;;;;;7.80;100.00;101120.66;5285786;28;20035;-79
2022/02/18 01:01:30;;;;;;;44.38;6.53;;;;;;;7.79;100.00;101114.47;5288422;28;20027;-80
2022/02/18 01:04:02;;;;;;;45.50;5.80;;;;;;;7.81;100.00;101116.16;5289975;28;20122;-80
2022/02/18 01:06:32;;;;;;;43.47;5.47;;;;;;;7.79;100.00;101127.00;5289019;28;20020;-79
2022/02/18 01:09:03;;;;;;;40.83;6.53;;;;;;;7.81;100.00;101116.16;5285446;28;20022;-80
2022/02/18 01:11:34;;;;;;;54.28;6.15;;;;;;;7.76;100.00;101109.41;5285763;28;20104;-80
2022/02/18 01:14:05;;;;;;;46.28;5.25;;;;;;;7.79;100.00;101101.13;5285116;28;20040;-80
2022/02/18 01:16:36;;;;;;;50.40;7.15;;;;;;;7.75;100.00;101094.38;5267257;28;20028;-80
2022/02/18 01:19:06;;;;;;;33.53;5.30;;;;;;;7.77;100.00;101100.41;5285627;28;20520;-79
2022/02/18 01:21:37;;;;;;;51.47;8.10;;;;;;;7.79;100.00;101094.94;5285092;28;20112;-79
2022/02/18 01:24:07;;;;;;;34.30;5.50;;;;;;;7.76;100.00;101087.19;5280944;28;20069;-80
2022/02/18 01:26:38;;;;;;;52.83;7.97;;;;;;;7.79;100.00;101082.44;5285920;28;20012;-80
2022/02/18 01:29:10;;;;;;;40.13;5.00;;;;;;;7.78;100.00;101079.88;5289758;28;20024;-80
2022/02/18 01:31:41;;;;;;;36.97;5.47;;;;;;;7.78;100.00;101075.41;5290871;28;20050;-80
2022/02/18 01:34:11;;;;;;;45.92;4.60;;;;;;;7.77;100.00;101073.69;5266889;28;20428;-79
2022/02/18 01:36:42;;;;;;;32.65;5.35;;;;;;;7.78;100.00;101074.53;5285241;28;20020;-80
2022/02/18 01:39:12;;;;;;;47.15;6.22;;;;;;;7.81;100.00;101057.41;5285659;28;20024;-79
2022/02/18 01:41:43;;;;;;;39.42;4.70;;;;;;;7.81;100.00;101060.06;5267052;28;20115;-79
2022/02/18 01:44:32;;;;;;;42.20;7.50;;;;;;;7.83;100.00;101056.28;5267734;28;20030;-80
2022/02/18 01:47:04;;;;;;;28.95;5.55;;;;;;;7.84;100.00;101046.44;5265884;28;20467;-80
2022/02/18 01:49:34;;;;;;;32.05;5.20;;;;;;;7.82;100.00;101045.72;5267755;28;20084;-80
2022/02/18 01:52:06;;;;;;;38.25;4.97;;;;;;;7.78;100.00;101030.00;5268212;28;20016;-80
2022/02/18 01:54:36;;;;;;;41.08;5.75;;;;;;;7.76;100.00;101017.75;5284568;28;20070;-80
2022/02/18 01:57:07;;;;;;;44.30;5.20;;;;;;;7.76;100.00;101017.75;5272626;28;20020;-80
2022/02/18 01:59:38;;;;;;;44.92;6.22;;;;;;;7.74;100.00;101023.25;5285158;28;20042;-80
2022/02/18 02:02:08;;;;;;;43.83;6.05;;;;;;;7.72;100.00;101009.19;5267788;28;20036;-79
2022/02/18 02:04:43;;;;;;;42.95;5.10;;;;;;;7.67;100.00;101006.09;5285289;28;20058;-79
2022/02/18 02:07:13;;;;;;;37.30;4.15;;;;;;;7.67;100.00;100995.44;5285025;28;20402;-80
2022/02/18 02:09:44;;;;;;;49.30;6.18;;;;;;;7.63;100.00;100986.03;5286489;28;20020;-81
2022/02/18 02:12:15;;;;;;;42.08;6.55;;;;;;;7.62;100.00;100980.81;5286189;28;20031;-78
2022/02/18 02:14:46;;;;;;;60.47;6.50;;;;;;;7.62;100.00;100984.34;5290415;28;20030;-78
2022/02/18 02:17:17;;;;;;;38.38;5.72;;;;;;;7.60;100.00;100974.81;5290683;28;20019;-78
2022/02/18 02:19:49;;;;;;;38.55;4.93;;;;;;;7.53;100.00;100959.38;5290553;28;20034;-78
2022/02/18 02:22:24;;;;;;;40.05;5.38;;;;;;;7.45;100.00;100958.38;5269366;28;20403;-78
2022/02/18 02:24:55;;;;;;;42.38;5.80;;;;;;;7.43;100.00;100941.66;5289749;28;20027;-78
2022/02/18 02:27:25;;;;;;;48.88;7.28;;;;;;;7.43;100.00;100942.53;5289507;28;20039;-78
2022/02/18 02:29:56;;;;;;;45.78;7.70;;;;;;;7.42;100.00;100945.31;5271103;28;20060;-78
2022/02/18 02:32:26;;;;;;;45.05;5.40;;;;;;;7.38;100.00;100935.91;5289288;28;20035;-78
2022/02/18 02:34:57;;;;;;;44.28;5.50;;;;;;;7.40;100.00;100925.94;5289424;28;20026;-78
2022/02/18 02:37:27;;;;;;;40.53;5.63;;;;;;;7.40;100.00;100905.44;5291028;28;20034;-78
2022/02/18 02:39:58;;;;;;;31.75;4.65;;;;;;;7.38;100.00;100898.53;5289312;28;20490;-79
2022/02/18 02:42:29;;;;;;;28.80;4.15;;;;;;;7.37;100.00;100896.88;5289334;28;20027;-78
2022/02/18 02:45:00;;;;;;;47.08;5.28;;;;;;;7.33;100.00;100883.00;5288424;28;20019;-78
2022/02/18 02:47:31;;;;;;;52.88;5.20;;;;;;;7.33;100.00;100866.97;5288246;28;20027;-78
2022/02/18 02:50:03;;;;;;;34.53;4.85;;;;;;;7.33;100.00;100845.63;5288558;28;20038;-78
2022/02/18 02:52:35;;;;;;;39.55;4.82;;;;;;;7.29;100.00;100838.06;5288727;28;20048;-78
2022/02/18 02:55:10;;;;;;;25.95;4.10;;;;;;;7.31;100.00;100844.06;5288185;28;20045;-78
2022/02/18 02:57:43;;;;;;;53.83;5.50;;;;;;;7.28;100.00;100839.88;5289326;28;20038;-79
2022/02/18 03:00:15;;;;;;;39.42;5.40;;;;;;;7.31;100.00;100836.06;5288323;28;20312;-78
2022/02/18 03:02:51;;;;;;;41.08;6.85;;;;;;;7.32;100.00;100833.25;5288615;28;20016;-78
2022/02/18 03:05:21;;;;;;;40.78;6.35;;;;;;;7.35;100.00;100829.47;5288835;28;20030;-79
2022/02/18 03:07:52;;;;;;;38.05;6.60;;;;;;;7.35;100.00;100818.78;5288498;28;20024;-78
2022/02/18 03:10:22;;;;;;;41.95;5.63;;;;;;;7.32;100.00;100809.22;5288753;28;20015;-78
2022/02/18 03:12:53;;;;;;;33.33;5.57;;;;;;;7.36;100.00;100804.44;5292960;28;20030;-82
2022/02/18 03:15:24;;;;;;;45.55;5.82;;;;;;;7.37;100.00;100798.94;5272139;28;20118;-77
2022/02/18 03:17:54;;;;;;;40.83;5.70;;;;;;;7.33;100.00;100786.03;5287837;28;20103;-77
2022/02/18 03:20:29;;;;;;;45.00;5.50;;;;;;;7.30;100.00;100776.53;5291192;28;20031;-82
2022/02/18 03:22:59;;;;;;;40.17;6.13;;;;;;;7.37;100.00;100755.41;5267478;28;20540;-77
2022/02/18 03:25:30;;;;;;;30.40;4.82;;;;;;;7.34;100.00;100756.56;5286873;28;20281;-77
2022/02/18 03:28:00;;;;;;;35.25;4.95;;;;;;;7.36;100.00;100773.25;5288097;28;20031;-77
2022/02/18 03:30:31;;;;;;;48.75;6.90;;;;;;;7.29;100.00;100756.16;5287703;28;20115;-77
2022/02/18 03:33:01;;;;;;;40.75;4.85;;;;;;;7.32;100.00;100739.84;5287443;28;20282;-77
2022/02/18 03:35:31;;;;;;;27.58;4.35;;;;;;;7.33;100.00;100733.53;5288163;28;20028;-77
2022/02/18 03:38:02;;;;;;;34.60;5.13;;;;;;;7.50;100.00;100727.41;5290090;28;20118;-78
2022/02/18 03:40:34;;;;;;;31.23;5.40;;;;;;;7.53;100.00;100728.94;5289318;28;20398;-77
2022/02/18 03:43:04;;;;;;;32.78;4.88;;;;;;;7.54;100.00;100719.94;5288997;28;20056;-78
2022/02/18 03:45:35;;;;;;;31.60;4.70;;;;;;;7.57;100.00;100705.44;5288443;28;20493;-77
2022/02/18 03:48:05;;;;;;;39.55;6.32;;;;;;;7.58;100.00;100696.44;5288288;28;20019;-78
2022/02/18 03:50:36;;;;;;;29.55;5.15;;;;;;;7.55;100.00;100684.22;5270118;28;20076;-77
2022/02/18 03:53:06;;;;;;;31.92;4.65;;;;;;;7.55;100.00;100662.88;5287304;28;20027;-77
2022/02/18 03:55:38;;;;;;;31.05;4.28;;;;;;;7.52;100.00;100647.97;5277768;28;20016;-77
2022/02/18 03:58:09;;;;;;;29.48;4.25;;;;;;;7.52;100.00;100631.97;5282918;28;20024;-77
2022/02/18 04:00:39;;;;;;;37.17;5.45;;;;;;;7.52;100.00;100631.13;5269705;28;20530;-85
2022/02/18 04:03:10;;;;;;;31.45;5.82;;;;;;;7.54;100.00;100615.81;5286226;28;20015;-77
2022/02/18 04:05:40;;;;;;;37.03;3.92;;;;;;;7.58;100.00;100614.53;5286844;28;20023;-77
2022/02/18 04:08:11;;;;;;;29.73;6.00;;;;;;;7.55;100.00;100596.13;5286602;28;20023;-77
2022/02/18 04:10:41;;;;;;;36.25;4.30;;;;;;;7.57;100.00;100579.97;5286620;28;20026;-77
2022/02/18 04:13:12;;;;;;;33.72;3.85;;;;;;;7.57;100.00;100579.97;5286239;28;20068;-78
2022/02/18 04:15:42;;;;;;;29.13;4.78;;;;;;;7.60;100.00;100569.81;5286318;28;20105;-77
2022/02/18 04:18:13;;;;;;;31.67;4.43;;;;;;;7.63;100.00;100566.00;5286921;28;20114;-78
2022/02/18 04:20:43;;;;;;;45.83;4.32;;;;;;;7.63;100.00;100564.19;5268124;28;20031;-77
2022/02/18 04:23:14;;;;;;;36.20;4.57;;;;;;;7.62;100.00;100559.81;5282519;28;20035;-77
2022/02/18 04:25:44;;;;;;;18.25;3.45;;;;;;;7.66;100.00;100557.69;5286197;28;20030;-77
2022/02/18 04:28:17;;;;;;;19.48;3.85;;;;;;;7.69;100.00;100541.38;5286186;28;20082;-78
2022/02/18 04:30:47;;;;;;;26.05;4.07;;;;;;;7.71;100.00;100523.34;5286345;28;20028;-77
2022/02/18 04:33:18;;;;;;;25.88;3.35;;;;;;;7.75;100.00;100520.22;5286276;28;20045;-77
2022/02/18 04:35:48;;;;;;;32.65;4.50;;;;;;;7.75;100.00;100501.53;5285515;28;20478;-78
2022/02/18 04:38:19;;;;;;;29.70;3.35;;;;;;;7.85;100.00;100496.06;5286894;28;20383;-77
2022/02/18 04:40:49;;;;;;;21.17;5.03;;;;;;;7.88;100.00;100493.09;5272998;28;20047;-78
2022/02/18 04:43:20;;;;;;;29.90;3.72;;;;;;;7.87;100.00;100488.72;5285982;28;20081;-78
2022/02/18 04:45:50;;;;;;;19.27;3.22;;;;;;;7.90;100.00;100485.75;5286047;28;20027;-77
2022/02/18 04:48:21;;;;;;;42.42;3.90;;;;;;;7.90;100.00;100485.75;5287427;28;20023;-77
2022/02/18 04:50:51;;;;;;;21.90;3.17;;;;;;;7.92;100.00;100475.75;5287909;28;20074;-77
2022/02/18 04:53:22;;;;;;;26.35;5.43;;;;;;;7.93;100.00;100469.44;5287863;28;20023;-77
2022/02/18 04:55:52;;;;;;;21.77;3.50;;;;;;;7.98;100.00;100460.91;5274717;28;20038;-77
2022/02/18 04:58:23;;;;;;;25.85;3.55;;;;;;;8.00;100.00;100462.44;5283403;28;20031;-77
2022/02/18 05:00:53;;;;;;;30.55;3.90;;;;;;;8.01;100.00;100461.44;5285813;28;20103;-78
2022/02/18 05:03:23;;;;;;;20.27;3.72;;;;;;;8.14;100.00;100447.66;5285451;28;20064;-77
2022/02/18 05:05:54;;;;;;;24.40;3.53;;;;;;;8.16;100.00;100439.47;5285505;28;20031;-77
2022/02/18 05:08:24;;;;;;;33.35;5.38;;;;;;;8.14;100.00;100433.47;5286392;28;20034;-77
2022/02/18 05:10:55;;;;;;;42.75;4.25;;;;;;;8.20;100.00;100427.47;5285984;28;20081;-77
2022/02/18 05:13:25;;;;;;;22.65;3.45;;;;;;;8.21;100.00;100427.31;5285693;28;20051;-77
2022/02/18 05:15:56;;;;;;;23.65;3.20;;;;;;;8.20;100.00;100414.94;5267084;28;20387;-77
2022/02/18 05:18:27;;;;;;;23.75;3.28;;;;;;;8.21;100.00;100400.56;5285463;28;20132;-77
2022/02/18 05:20:57;;;;;;;23.10;4.40;;;;;;;8.26;100.00;100408.13;5285646;28;20055;-77
2022/02/18 05:23:27;;;;;;;23.52;3.47;;;;;;;8.29;100.00;100387.25;5281335;28;20024;-77
2022/02/18 05:25:58;;;;;;;27.98;3.90;;;;;;;8.32;100.00;100372.72;5285404;28;20107;-78
2022/02/18 05:28:29;;;;;;;32.95;4.28;;;;;;;8.36;100.00;100378.56;5267454;28;20428;-77
2022/02/18 05:30:59;;;;;;;28.88;4.25;;;;;;;8.34;100.00;100368.06;5286213;28;20028;-77
2022/02/18 05:33:29;;;;;;;29.88;4.80;;;;;;;8.32;100.00;100362.84;5285718;28;20074;-77
2022/02/18 05:36:00;;;;;;;30.25;4.45;;;;;;;8.28;100.00;100358.88;5285968;28;20379;-77
2022/02/18 05:38:30;;;;;;;24.83;3.80;;;;;;;8.27;100.00;100353.66;5286453;28;20035;-77
2022/02/18 05:41:01;;;;;;;26.33;4.00;;;;;;;8.30;100.00;100342.66;5251827;28;20305;-78
2022/02/18 05:43:32;;;;;;;29.05;4.32;;;;;;;8.24;100.00;100340.63;5286451;28;20026;-77
2022/02/18 05:46:02;;;;;;;25.35;3.42;;;;;;;8.20;100.00;100337.44;5285512;28;20090;-77
2022/02/18 05:48:33;;;;;;;23.40;3.85;;;;;;;8.22;100.00;100327.41;5288909;28;20135;-77
2022/02/18 05:51:05;;;;;;;29.83;3.72;;;;;;;8.20;100.00;100318.75;5289420;28;20024;-78
2022/02/18 05:53:36;;;;;;;31.58;4.00;;;;;;;8.14;100.00;100316.72;5290179;28;20019;-77
2022/02/18 05:56:07;;;;;;;42.80;7.50;;;;;;;8.12;100.00;100313.38;5267299;28;20029;-77
2022/02/18 05:58:37;;;;;;;26.42;4.22;;;;;;;8.10;100.00;100309.22;5288909;28;20023;-77
2022/02/18 06:01:07;;;;;;;23.52;4.43;;;;;;;8.03;100.00;100292.97;5270789;28;20375;-77
2022/02/18 06:03:38;;;;;;;30.67;5.38;;;;;;;8.02;100.00;100300.16;5289079;28;20024;-77
2022/02/18 06:06:08;;;;;;;26.38;5.22;;;;;;;8.00;100.00;100286.13;5289939;28;20011;-83
2022/02/18 06:08:41;;;;;;;42.50;6.90;;;;;;;7.99;100.00;100276.47;5272459;28;20019;-85
2022/02/18 06:11:11;;;;;;;26.98;3.78;;;;;;;7.95;100.00;100269.75;5289688;28;20484;-79
2022/02/18 06:13:42;;;;;;;37.05;7.47;;;;;;;7.91;100.00;100263.06;5289838;28;20114;-79
2022/02/18 06:16:12;;;;;;;33.35;5.13;;;;;;;7.88;100.00;100251.88;5274010;28;20031;-81
2022/02/18 06:18:42;;;;;;;27.73;3.83;;;;;;;7.89;100.00;100249.06;5294308;28;20051;-81
2022/02/18 06:21:13;;;;;;;33.25;5.22;;;;;;;7.92;100.00;100243.38;5291704;28;20366;-81
2022/02/18 06:23:43;;;;;;;30.80;4.95;;;;;;;7.91;100.00;100236.34;5286227;28;20516;-78
2022/02/18 06:26:14;;;;;;;27.80;3.80;;;;;;;7.90;100.00;100231.19;5294277;28;20325;-79
2022/02/18 06:28:44;;;;;;;25.00;4.90;;;;;;;7.88;100.00;100230.50;5275865;28;20035;-79
2022/02/18 06:31:16;;;;;;;17.38;3.90;;;;;;;7.88;100.00;100228.69;5291925;28;20087;-77
2022/02/18 06:33:46;;;;;;;36.25;4.97;;;;;;;7.89;100.00;100226.84;5288840;28;20544;-77
2022/02/18 06:36:17;;;;;;;37.53;5.60;;;;;;;7.90;100.00;100210.66;5288341;28;20056;-78
2022/02/18 06:38:47;;;;;;;24.10;4.60;;;;;;;7.94;100.00;100208.50;5288475;28;20479;-79
2022/02/18 06:41:18;;;;;;;23.35;4.28;;;;;;;8.00;100.00;100208.66;5289874;28;20450;-79
2022/02/18 06:43:48;;;;;;;31.77;4.57;;;;;;;8.03;100.00;100191.47;5288928;28;20106;-79
2022/02/18 06:46:19;;;;;;;30.98;3.90;;;;;;;8.05;100.00;100184.97;5270705;28;20051;-77
2022/02/18 06:48:49;;;;;;;20.75;3.35;;;;;;;8.11;100.00;100182.63;5288313;28;20031;-78
2022/02/18 06:51:20;;;;;;;24.23;4.05;;;;;;;8.16;100.00;100173.09;5288343;28;20032;-77
2022/02/18 06:53:50;;;;;;;23.92;4.25;;;;;;;8.22;100.00;100171.59;5288219;28;20023;-77
2022/02/18 06:56:20;;;;;;;21.98;3.72;;;;;;;8.27;100.00;100159.41;5274340;28;20043;-77
2022/02/18 06:58:52;;;;;;;23.45;3.75;;;;;;;8.32;100.00;100149.03;5288255;28;20027;-77
2022/02/18 07:01:22;;;;;;;19.55;3.38;;;;;;;8.40;100.00;100156.28;5287730;28;20394;-77
2022/02/18 07:03:53;;;;;;;16.15;3.85;;;;;;;8.47;100.00;100145.72;5287867;28;20023;-77
2022/02/18 07:06:23;;;;;;;17.13;3.20;;;;;;;8.54;100.00;100133.38;5269894;28;20016;-77
2022/02/18 07:08:54;;;;;;;19.30;5.00;;;;;;;8.63;100.00;100124.28;5285118;28;20044;-77
2022/02/18 07:11:24;;;;;;;20.20;3.20;;;;;;;8.71;100.00;100123.44;5268314;28;20031;-77
2022/02/18 07:13:55;;;;;;;11.65;3.38;;;;;;;8.76;100.00;100108.56;5269065;28;20499;-77
2022/02/18 07:16:25;;;;;;;11.40;2.75;;;;;;;8.81;100.00;100108.88;5287145;28;20052;-78
2022/02/18 07:18:56;;;;;;;13.65;2.80;;;;;;;8.89;100.00;100091.97;5287170;28;20110;-78
2022/02/18 07:21:26;;;;;;;13.48;2.58;;;;;;;8.98;100.00;100084.72;5287639;28;20023;-77
2022/02/18 07:23:57;;;;;;;15.07;2.58;;;;;;;9.05;100.00;100083.88;5264755;28;20110;-76
2022/02/18 07:26:27;;;;;;;13.98;2.45;;;;;;;9.17;100.00;100067.41;5271510;28;20023;-76
2022/02/18 07:28:58;;;;;;;12.93;2.28;;;;;;;9.24;100.00;100066.53;5282535;28;20024;-76
2022/02/18 07:31:28;;;;;;;7.60;2.97;;;;;;;9.38;100.00;100062.25;5276764;28;20085;-76
2022/02/18 07:33:59;;;;;;;13.48;2.55;;;;;;;9.45;100.00;100057.88;5282660;28;20024;-78
2022/02/18 07:36:29;;;;;;;5.05;1.95;;;;;;;9.65;100.00;100044.00;5265472;28;20072;-77
2022/02/18 07:38:59;;;;;;;8.88;3.78;;;;;;;9.71;100.00;100037.91;5270809;28;20037;-77
2022/02/18 07:41:30;;;;;;;5.35;1.38;;;;;;;9.81;100.00;100038.50;5273377;28;20452;-78
2022/02/18 07:44:00;;;;;;;2.17;1.27;;;;;;;9.98;100.00;100031.97;5261011;28;20027;-78
2022/02/18 07:46:31;;;;;;;11.57;1.85;;;;;;;10.18;100.00;100028.75;5281994;28;20020;-79
2022/02/18 07:49:01;;;;;;;2.53;1.25;;;;;;;10.25;100.00;100022.53;5286991;28;20037;-79
2022/02/18 07:51:32;;;;;;;4.80;1.38;;;;;;;10.32;100.00;100018.09;5287980;28;20058;-78
2022/02/18 07:54:04;;;;;;;3.25;1.33;;;;;;;10.38;100.00;100008.47;5269406;28;20394;-82
2022/02/18 07:56:35;;;;;;;4.18;1.60;;;;;;;10.40;100.00;100011.81;5263241;28;20054;-79
2022/02/18 07:59:05;;;;;;;6.35;1.52;;;;;;;10.51;100.00;100003.28;5248296;28;20065;-79
2022/02/18 08:01:36;;;;;;;5.97;1.45;;;;;;;10.62;100.00;100001.97;5265889;28;20106;-78
2022/02/18 08:04:06;;;;;;;3.53;1.10;;;;;;;10.70;100.00;100004.56;5266904;28;20016;-78
2022/02/18 08:06:36;;;;;;;3.50;1.20;;;;;;;10.74;100.00;99989.72;5238027;28;20081;-78
2022/02/18 08:09:07;;;;;;;3.10;1.17;;;;;;;10.75;100.00;99971.81;5274345;28;20519;-78
2022/02/18 08:11:37;;;;;;;8.07;1.40;;;;;;;10.79;100.00;99973.94;5249230;28;20020;-78
2022/02/18 08:14:08;;;;;;;2.70;0.95;;;;;;;10.88;100.00;99970.09;5248920;28;20074;-78
2022/02/18 08:16:38;;;;;;;1.50;0.98;;;;;;;10.92;100.00;99954.44;5265423;28;20110;-78
2022/02/18 08:19:10;;;;;;;2.00;1.40;;;;;;;10.98;100.00;99947.50;5269620;28;20026;-78
2022/02/18 08:21:40;;;;;;;3.30;1.27;;;;;;;11.01;100.00;99944.44;5270391;28;20062;-78
2022/02/18 08:24:15;;;;;;;2.65;0.98;;;;;;;11.03;100.00;99940.53;5280754;28;20048;-78
2022/02/18 08:26:47;;;;;;;2.10;1.10;;;;;;;11.07;100.00;99940.97;5289559;28;20504;-78
2022/02/18 08:29:21;;;;;;;4.15;1.00;;;;;;;11.07;100.00;99939.13;5264065;28;20023;-78
2022/02/18 08:31:52;;;;;;;4.97;1.00;;;;;;;11.07;100.00;99928.38;5279900;28;20030;-78
2022/02/18 08:34:23;;;;;;;1.75;0.77;;;;;;;11.09;100.00;99928.19;5270196;28;20260;-78
2022/02/18 08:36:53;;;;;;;3.88;0.98;;;;;;;11.13;100.00;99921.41;5248007;28;20429;-78
2022/02/18 08:39:24;;;;;;;3.35;1.20;;;;;;;11.12;100.00;99915.22;5252232;28;20024;-78
2022/02/18 08:41:54;;;;;;;2.17;0.88;;;;;;;11.20;100.00;99905.38;5271556;28;20088;-77
2022/02/18 08:44:25;;;;;;;1.77;0.98;;;;;;;11.26;100.00;99912.66;5272081;28;20114;-78
2022/02/18 08:46:56;;;;;;;2.75;1.27;;;;;;;11.32;100.00;99903.84;5258043;28;20035;-77
2022/02/18 08:49:26;;;;;;;2.65;0.80;;;;;;;11.39;100.00;99888.59;5264171;28;20023;-77
2022/02/18 08:51:57;;;;;;;2.05;1.00;;;;;;;11.41;100.00;99875.81;5267928;28;20077;-77
2022/02/18 08:54:27;;;;;;;1.77;1.40;;;;;;;11.52;100.00;99883.31;5264103;28;20035;-77
2022/02/18 08:56:57;;;;;;;4.07;1.15;;;;;;;11.55;100.00;99864.16;5280220;28;20051;-77
2022/02/18 08:59:28;;;;;;;5.53;1.45;;;;;;;11.62;100.00;99848.06;5267057;28;20051;-77
2022/02/18 09:01:59;;;;;;;4.60;1.10;;;;;;;11.59;100.00;99837.69;5285155;28;20043;-77
2022/02/18 09:04:29;;;;;;;3.47;1.75;;;;;;;11.68;100.00;99853.47;5286061;28;20099;-81
2022/02/18 09:07:00;;;;;;;2.20;1.23;;;;;;;11.63;100.00;99836.28;5258840;28;20349;-78
2022/02/18 09:09:30;;;;;;;1.88;1.50;;;;;;;11.70;100.00;99842.53;5256665;28;20028;-79
2022/02/18 09:12:01;;;;;;;4.75;1.52;;;;;;;11.72;100.00;99828.91;5248023;28;20027;-79
2022/02/18 09:14:31;;;;;;;2.67;2.05;;;;;;;11.74;100.00;99824.16;5231257;28;20031;-79
2022/02/18 09:17:02;;;;;;;2.90;1.63;;;;;;;11.73;100.00;99833.25;5267543;28;20038;-79
2022/02/18 09:19:32;;;;;;;2.20;1.30;;;;;;;11.83;100.00;99825.69;5287172;28;20031;-79
2022/02/18 09:22:03;;;;;;;2.65;1.85;;;;;;;11.84;100.00;99822.78;5283293;28;20049;-79
2022/02/18 09:24:33;;;;;;;2.22;1.30;;;;;;;11.85;100.00;99824.47;5249521;28;20045;-79
2022/02/18 09:27:04;;;;;;;4.72;2.13;;;;;;;11.89;100.00;99822.19;5257587;28;20024;-80
2022/02/18 09:29:34;;;;;;;3.92;1.27;;;;;;;11.90;100.00;99807.75;5268682;28;20024;-79
2022/02/18 09:32:05;;;;;;;1.75;1.02;;;;;;;11.93;100.00;99812.69;5230881;28;20096;-79
2022/02/18 09:34:36;;;;;;;2.95;1.13;;;;;;;11.92;100.00;99803.81;5266030;28;20085;-79
2022/02/18 09:37:14;;;;;;;2.83;1.33;;;;;;;11.91;100.00;99812.91;5255837;28;20023;-85
2022/02/18 09:39:46;;;;;;;9.35;1.70;;;;;;;11.88;100.00;99797.16;5247794;28;20086;-79
2022/02/18 09:42:18;;;;;;;4.45;1.52;;;;;;;11.97;100.00;99794.31;5249030;28;20624;-79
2022/02/18 09:44:50;;;;;;;3.75;1.08;;;;;;;11.98;100.00;99793.28;5277880;28;20403;-79
2022/02/18 09:47:20;;;;;;;2.13;1.40;;;;;;;11.95;100.00;99807.97;5247925;28;20437;-79
2022/02/18 09:49:52;;;;;;;3.67;1.40;;;;;;;11.96;100.00;99798.03;5266664;28;20032;-79
2022/02/18 09:52:23;;;;;;;1.85;1.05;;;;;;;12.05;100.00;99795.00;5266604;28;20027;-79
2022/02/18 09:54:54;;;;;;;1.65;1.30;;;;;;;12.10;100.00;99789.00;5276376;28;20042;-78
2022/02/18 09:57:26;;;;;;;2.35;1.23;;;;;;;12.08;100.00;99766.84;5286199;28;20047;-78
2022/02/18 09:59:57;;;;;;;1.27;1.05;;;;;;;12.12;100.00;99774.31;5267925;28;20054;-79
2022/02/18 10:02:27;;;;;;;2.08;1.35;;;;;;;12.05;100.00;99770.78;5268278;28;20027;-79
2022/02/18 10:04:58;;;;;;;1.60;1.25;;;;;;;12.04;100.00;99757.53;5267219;28;20035;-80
2022/02/18 10:07:29;;;;;;;0.90;0.85;;;;;;;12.05;100.00;99746.59;5288248;28;20012;-80
2022/02/18 10:10:13;;;;;;;6.65;1.17;;;;;;;11.95;100.00;99742.59;5271187;28;20026;-79
2022/02/18 10:12:43;;;;;;;1.35;1.10;;;;;;;11.92;100.00;99760.81;5269255;28;20019;-79
2022/02/18 10:15:14;;;;;;;1.77;1.15;;;;;;;11.86;100.00;99736.59;5261707;28;20048;-80
2022/02/18 10:17:45;;;;;;;1.70;0.90;;;;;;;11.99;100.00;99733.94;5269369;28;20031;-79
2022/02/18 10:20:34;;;;;;;2.58;1.23;;;;;;;11.95;100.00;99730.03;5287228;28;20402;-80
2022/02/18 10:23:07;;;;;;;2.30;1.30;;;;;;;11.89;100.00;99722.75;5240433;28;20023;-79
2022/02/18 10:25:41;;;;;;;2.95;1.20;;;;;;;11.96;100.00;99710.19;5238497;28;20016;-79
2022/02/18 10:28:16;;;;;;;3.58;1.52;;;;;;;12.05;100.00;99714.34;5272195;28;20616;-79
2022/02/18 10:30:47;;;;;;;3.93;1.47;;;;;;;12.05;100.00;99708.97;5278445;28;20379;-79
2022/02/18 10:33:22;;;;;;;2.72;1.70;;;;;;;12.07;100.00;99712.25;5245485;28;20053;-79
2022/02/18 10:36:15;;;;;;;3.03;1.90;;;;;;;12.03;100.00;99694.88;5257620;28;20039;-79
2022/02/18 10:38:49;;;;;;;2.30;1.50;;;;;;;12.05;100.00;99676.69;5260438;28;20372;-78
2022/02/18 10:41:48;;;;;;;5.15;1.98;;;;;;;12.12;100.00;99665.94;5246235;28;20034;-85
2022/02/18 10:44:18;;;;;;;3.42;1.42;;;;;;;12.24;100.00;99658.91;5275733;28;20038;-80
2022/02/18 10:46:55;;;;;;;1.95;1.30;;;;;;;12.24;100.00;99660.78;5283520;28;20027;-78
2022/02/18 10:49:32;;;;;;;2.33;1.50;;;;;;;12.20;100.00;99652.31;5251183;28;20036;-79
2022/02/18 10:52:15;;;;;;;1.58;0.90;;;;;;;12.19;100.00;99638.03;5258748;28;20030;-79
2022/02/18 10:54:47;;;;;;;3.00;1.02;;;;;;;12.24;100.00;99633.91;5254084;28;20019;-79
2022/02/18 10:57:21;;;;;;;4.95;1.38;;;;;;;12.28;100.00;99624.38;5260444;28;20043;-79
2022/02/18 10:59:54;;;;;;;1.30;1.00;;;;;;;12.32;100.00;99598.75;5270642;28;20030;-79
2022/02/18 11:05:34;;;;;;;2.45;1.02;;;;;;;12.48;100.00;99601.00;5275349;28;20027;-79
2022/02/18 11:08:05;;;;;;;4.57;0.95;;;;;;;12.49;100.00;99618.78;5280225;28;20361;-79
2022/02/18 11:10:39;;;;;;;5.80;1.40;;;;;;;12.52;100.00;99613.00;5253862;28;20051;-79
2022/02/18 11:13:12;;;;;;;2.67;1.17;;;;;;;12.57;100.00;99590.84;5260997;28;20039;-79
2022/02/18 11:15:43;;;;;;;2.50;1.02;;;;;;;12.67;100.00;99585.88;5271781;28;20111;-79
2022/02/18 11:18:14;;;;;;;3.67;1.30;;;;;;;12.68;100.00;99577.56;5246195;28;20111;-80
2022/02/18 11:20:46;;;;;;;3.10;1.05;;;;;;;12.67;100.00;99584.00;5261121;28;20181;-79
2022/02/18 11:23:16;;;;;;;1.58;1.05;;;;;;;12.67;100.00;99569.72;5285590;28;21251;-79
2022/02/18 11:25:47;;;;;;;2.00;0.95;;;;;;;12.64;100.00;99562.06;5251175;28;20016;-79
2022/02/18 11:28:18;;;;;;;3.90;1.10;;;;;;;12.69;100.00;99555.00;5266068;28;20077;-79
2022/02/18 11:30:50;;;;;;;1.20;0.80;;;;;;;12.74;100.00;99562.44;5269921;28;20450;-79
2022/02/18 11:33:21;;;;;;;1.10;1.00;;;;;;;12.73;100.00;99554.59;5274321;28;20020;-79
2022/02/18 11:35:51;;;;;;;3.70;0.90;;;;;;;12.63;100.00;99550.47;5275526;28;20031;-79
2022/02/18 11:38:45;;;;;;;1.23;1.02;;;;;;;12.62;100.00;99535.38;5280950;28;20031;-80
2022/02/18 11:41:41;;;;;;;1.70;0.90;;;;;;;12.58;100.00;99504.53;5267707;28;20035;-78